Terminal Aerodrome Forecast
Issued by NWS Bismarck, ND

Home | Current Version | Previous Version | Graphics & Text | Print | Product List | Glossary On
Versions: 1 2 3 4 5 6 7 8 9 10 11 12 13 14 15 16 17 18
779
FTUS43 KBIS 162027 AAA
TAFISN
TAF AMD
KISN 162027Z 1620/1718 22006KT P6SM SCT130 SCT200
     FM170600 23006KT P6SM SCT100 BKN150 WS020/26040KT
     FM171200 24007KT P6SM SCT300 WS020/27045KT
     FM171400 24011KT P6SM SKC WS011/27025KT=

USA.gov is the U.S. government's official web portal to all federal, state and local government web resources and services.